createdAt,value
2023-05-09T00:01:13.417Z,101928.53
2023-05-09T00:03:40.594Z,101932.91
2023-05-09T00:06:07.222Z,101934.72
2023-05-09T00:08:33.658Z,101938.38
2023-05-09T00:11:00.092Z,101937.59
2023-05-09T00:13:26.498Z,101942.06
2023-05-09T00:15:57.244Z,101941.22
2023-05-09T00:18:23.921Z,101945.72
2023-05-09T00:20:50.792Z,101939.50
2023-05-09T00:23:17.850Z,101937.69
2023-05-09T00:25:44.212Z,101932.34
2023-05-09T00:28:10.756Z,101924.22
2023-05-09T00:30:37.231Z,101918.88
2023-05-09T00:33:03.641Z,101915.34
2023-05-09T00:35:32.135Z,101917.16
2023-05-09T00:37:59.331Z,101915.34
2023-05-09T00:40:26.012Z,101912.59
2023-05-09T00:42:52.428Z,101898.28
2023-05-09T00:45:18.847Z,101898.28
2023-05-09T00:47:45.309Z,101897.31
2023-05-09T00:50:11.834Z,101898.28
2023-05-09T00:52:38.562Z,101895.63
2023-05-09T00:55:08.167Z,101888.56
2023-05-09T00:57:34.680Z,101882.25
2023-05-09T01:00:01.833Z,101880.44
2023-05-09T01:02:28.639Z,101880.53
2023-05-09T01:04:55.931Z,101878.72
2023-05-09T01:07:35.069Z,101874.34
2023-05-09T01:10:21.624Z,101867.38
2023-05-09T01:13:03.122Z,101868.31
2023-05-09T01:15:59.731Z,101871.97
2023-05-09T01:18:33.253Z,101870.25
2023-05-09T01:21:07.571Z,101861.38
2023-05-09T01:23:44.059Z,101856.03
2023-05-09T01:26:21.959Z,101849.84
2023-05-09T01:28:57.529Z,101852.50
2023-05-09T01:31:25.217Z,101845.47
2023-05-09T01:33:59.750Z,101842.69
2023-05-09T01:36:30.102Z,101839.03
2023-05-09T01:38:59.055Z,101830.19
2023-05-09T01:41:30.931Z,101830.91
2023-05-09T01:44:00.931Z,101832.75
2023-05-09T01:46:28.351Z,101838.94
2023-05-09T01:48:56.015Z,101831.03
2023-05-09T01:51:24.114Z,101827.38
2023-05-09T01:53:52.578Z,101830.19
2023-05-09T01:56:21.474Z,101831.88
2023-05-09T01:58:50.051Z,101833.81
2023-05-09T02:01:17.710Z,101833.81
2023-05-09T02:03:46.968Z,101829.44
2023-05-09T02:06:15.643Z,101832.09
2023-05-09T02:08:43.487Z,101824.09
2023-05-09T02:11:09.852Z,101829.31
2023-05-09T02:13:38.213Z,101831.13
2023-05-09T02:16:06.285Z,101825.78
2023-05-09T02:18:32.805Z,101827.69
2023-05-09T02:21:00.808Z,101824.22
2023-05-09T02:23:27.573Z,101833.91
2023-05-09T02:25:54.868Z,101820.59
2023-05-09T02:28:23.677Z,101821.56
2023-05-09T02:30:52.099Z,101825.09
2023-05-09T02:33:18.766Z,101816.16
2023-05-09T02:35:46.558Z,101820.56
2023-05-09T02:38:14.012Z,101824.09
2023-05-09T02:40:43.167Z,101821.31
2023-05-09T02:43:09.848Z,101818.53
2023-05-09T02:45:36.346Z,101815.00
2023-05-09T02:48:02.913Z,101815.00
2023-05-09T02:50:29.566Z,101813.19
2023-05-09T02:52:56.008Z,101815.97
2023-05-09T02:55:22.365Z,101813.19
2023-05-09T02:57:51.943Z,101802.59
2023-05-09T03:00:27.879Z,101807.09
2023-05-09T03:02:54.773Z,101805.38
2023-05-09T03:05:21.321Z,101800.03
2023-05-09T03:07:48.398Z,101797.44
2023-05-09T03:10:14.924Z,101793.88
2023-05-09T03:12:43.602Z,101794.78
2023-05-09T03:15:10.237Z,101791.22
2023-05-09T03:17:39.871Z,101796.66
2023-05-09T03:20:07.856Z,101790.47
2023-05-09T03:22:34.266Z,101792.28
2023-05-09T03:25:03.529Z,101787.06
2023-05-09T03:27:29.922Z,101789.72
2023-05-09T03:29:56.343Z,101791.53
2023-05-09T03:32:22.872Z,101784.50
2023-05-09T03:34:49.254Z,101780.84
2023-05-09T03:37:16.137Z,101778.19
2023-05-09T03:39:43.120Z,101780.84
2023-05-09T03:42:09.499Z,101771.03
2023-05-09T03:44:36.200Z,101770.06
2023-05-09T03:47:02.619Z,101768.34
2023-05-09T03:49:36.159Z,101770.06
2023-05-09T03:52:03.497Z,101763.88
2023-05-09T03:54:30.260Z,101757.56
2023-05-09T03:56:57.030Z,101760.34
2023-05-09T03:59:23.809Z,101751.47
2023-05-09T04:01:50.341Z,101755.00
2023-05-09T04:04:18.005Z,101754.88
2023-05-09T04:06:44.743Z,101753.19
2023-05-09T04:09:11.793Z,101761.94
2023-05-09T04:11:41.062Z,101758.41
2023-05-09T04:14:10.522Z,101762.91
2023-05-09T04:16:37.082Z,101764.09
2023-05-09T04:19:04.165Z,101762.25
2023-05-09T04:21:31.751Z,101754.25
2023-05-09T04:24:00.184Z,101755.19
2023-05-09T04:26:37.858Z,101746.44
2023-05-09T04:29:06.495Z,101750.06
2023-05-09T04:31:33.363Z,101748.25
2023-05-09T04:34:00.921Z,101743.75
2023-05-09T04:36:29.449Z,101742.78
2023-05-09T04:38:57.851Z,101744.31
2023-05-09T04:41:25.973Z,101744.19
2023-05-09T04:43:52.358Z,101743.41
2023-05-09T04:46:20.023Z,101735.69
2023-05-09T04:48:46.517Z,101738.59
2023-05-09T04:51:12.987Z,101734.31
2023-05-09T04:53:39.359Z,101730.91
2023-05-09T04:56:06.483Z,101728.88
2023-05-09T04:58:38.210Z,101727.91
2023-05-09T05:01:08.226Z,101727.03
2023-05-09T05:03:34.813Z,101720.97
2023-05-09T05:06:01.460Z,101720.72
2023-05-09T05:08:28.032Z,101724.25
2023-05-09T05:10:54.540Z,101722.56
2023-05-09T05:13:21.586Z,101720.00
2023-05-09T05:15:52.241Z,101705.66
2023-05-09T05:18:20.468Z,101703.00
2023-05-09T05:20:46.947Z,101695.84
2023-05-09T05:23:13.310Z,101698.63
2023-05-09T05:25:39.701Z,101703.22
2023-05-09T05:28:06.470Z,101697.03
2023-05-09T05:30:34.551Z,101693.38
2023-05-09T05:33:01.954Z,101700.44
2023-05-09T05:35:29.184Z,101697.09
2023-05-09T05:37:56.633Z,101699.16
2023-05-09T05:40:23.069Z,101686.53
2023-05-09T05:42:51.646Z,101690.28
2023-05-09T05:45:18.129Z,101685.03
2023-05-09T05:47:49.024Z,101680.75
2023-05-09T05:50:16.124Z,101671.00
2023-05-09T05:52:43.001Z,101678.25
2023-05-09T05:55:12.863Z,101667.69
2023-05-09T05:57:40.224Z,101665.03
2023-05-09T06:00:12.205Z,101674.84
2023-05-09T06:02:47.532Z,101674.09
2023-05-09T06:05:21.146Z,101671.44
2023-05-09T06:07:47.852Z,101670.59
2023-05-09T06:10:15.944Z,101662.56
2023-05-09T06:12:43.624Z,101668.53
2023-05-09T06:15:10.502Z,101671.31
2023-05-09T06:17:40.839Z,101674.97
2023-05-09T06:20:07.670Z,101670.38
2023-05-09T06:22:34.037Z,101666.63
2023-05-09T06:25:00.410Z,101666.22
2023-05-09T06:27:26.802Z,101666.84
2023-05-09T06:29:53.143Z,101657.78
2023-05-09T06:32:19.520Z,101664.72
2023-05-09T06:34:45.879Z,101651.25
2023-05-09T06:37:12.231Z,101653.81
2023-05-09T06:39:38.655Z,101636.81
2023-05-09T06:42:05.118Z,101642.16
2023-05-09T06:44:36.529Z,101637.59
2023-05-09T06:47:02.912Z,101636.50
2023-05-09T06:49:29.386Z,101629.47
2023-05-09T06:51:55.787Z,101619.63
2023-05-09T06:54:22.163Z,101622.19
2023-05-09T06:56:48.565Z,101613.31
2023-05-09T06:59:16.435Z,101611.50
2023-05-09T07:01:43.044Z,101609.66
2023-05-09T07:04:09.468Z,101609.56
2023-05-09T07:06:35.979Z,101605.06
2023-05-09T07:09:03.742Z,101602.19
2023-05-09T07:11:37.014Z,101602.19
2023-05-09T07:14:04.145Z,101599.50
2023-05-09T07:16:30.571Z,101598.31
2023-05-09T07:18:56.998Z,101591.81
2023-05-09T07:21:23.374Z,101593.28
2023-05-09T07:23:49.727Z,101587.59
2023-05-09T07:26:16.122Z,101590.16
2023-05-09T07:28:42.627Z,101590.06
2023-05-09T07:31:09.318Z,101588.09
2023-05-09T07:33:36.011Z,101581.81
2023-05-09T07:36:02.790Z,101575.38
2023-05-09T07:38:29.203Z,101576.97
2023-05-09T07:40:55.609Z,101572.47
2023-05-09T07:43:22.471Z,101569.69
2023-05-09T07:45:48.935Z,101560.81
2023-05-09T07:48:15.368Z,101556.44
2023-05-09T07:50:41.720Z,101550.97
2023-05-09T07:53:08.527Z,101548.28
2023-05-09T07:55:34.925Z,101534.84
2023-05-09T07:58:01.368Z,101534.72
2023-05-09T08:00:27.902Z,101528.53
2023-05-09T08:02:54.485Z,101536.31
2023-05-09T08:05:21.017Z,101534.59
2023-05-09T08:07:47.433Z,101524.75
2023-05-09T08:10:13.902Z,101529.25
2023-05-09T08:12:40.399Z,101526.81
2023-05-09T08:15:07.363Z,101529.50
2023-05-09T08:17:33.794Z,101516.22
2023-05-09T08:20:00.582Z,101516.13
2023-05-09T08:22:27.016Z,101516.00
2023-05-09T08:24:53.390Z,101507.00
2023-05-09T08:27:19.738Z,101509.81
2023-05-09T08:29:46.235Z,101505.31
2023-05-09T08:32:12.616Z,101499.72
2023-05-09T08:34:39.038Z,101490.84
2023-05-09T08:37:05.391Z,101496.06
2023-05-09T08:39:31.902Z,101498.75
2023-05-09T08:41:59.844Z,101496.06
2023-05-09T08:44:29.052Z,101497.69
2023-05-09T08:46:59.280Z,101481.72
2023-05-09T08:49:26.306Z,101485.28
2023-05-09T08:51:52.977Z,101484.63
2023-05-09T08:54:22.682Z,101484.75
2023-05-09T08:56:50.280Z,101485.63
2023-05-09T08:59:17.989Z,101481.34
2023-05-09T09:01:44.718Z,101483.06
2023-05-09T09:04:14.592Z,101476.00
2023-05-09T09:06:41.534Z,101471.50
2023-05-09T09:09:09.064Z,101464.56
2023-05-09T09:11:36.723Z,101469.03
2023-05-09T09:14:12.883Z,101462.00
2023-05-09T09:16:41.484Z,101463.63
2023-05-09T09:19:12.583Z,101452.03
2023-05-09T09:21:42.294Z,101452.91
2023-05-09T09:24:09.007Z,101452.78
2023-05-09T09:26:46.019Z,101449.16
2023-05-09T09:29:13.346Z,101451.81
2023-05-09T09:31:44.674Z,101450.00
2023-05-09T09:34:11.052Z,101453.66
2023-05-09T09:36:37.394Z,101446.69
2023-05-09T09:39:05.400Z,101445.25
2023-05-09T09:41:35.621Z,101434.03
2023-05-09T09:44:09.372Z,101427.13
2023-05-09T09:46:48.158Z,101421.19
2023-05-09T09:49:16.095Z,101418.03
2023-05-09T09:51:42.913Z,101418.03
2023-05-09T09:54:11.194Z,101410.34
2023-05-09T09:56:42.529Z,101407.06
2023-05-09T09:59:11.287Z,101405.59
2023-05-09T10:02:04.887Z,101403.16
2023-05-09T10:04:35.027Z,101413.38
2023-05-09T10:07:03.618Z,101400.09
2023-05-09T10:09:30.020Z,101392.94
2023-05-09T10:11:56.957Z,101400.09
2023-05-09T10:14:25.477Z,101401.06
2023-05-09T10:16:56.568Z,101392.41
2023-05-09T10:19:25.056Z,101391.34
2023-05-09T10:21:53.861Z,101384.06
2023-05-09T10:24:42.450Z,101376.66
2023-05-09T10:27:13.031Z,101370.22
2023-05-09T10:29:45.305Z,101360.38
2023-05-09T10:32:16.961Z,101355.88
2023-05-09T10:34:48.905Z,101352.34
2023-05-09T10:37:16.736Z,101358.66
2023-05-09T10:39:43.925Z,101349.66
2023-05-09T10:42:10.632Z,101347.84
2023-05-09T10:44:38.212Z,101336.28
2023-05-09T10:47:05.297Z,101335.31
2023-05-09T10:49:31.905Z,101335.31
2023-05-09T10:51:58.266Z,101327.16
2023-05-09T10:54:31.032Z,101314.56
2023-05-09T10:56:57.894Z,101314.28
2023-05-09T10:59:43.317Z,101308.94
2023-05-09T11:02:20.180Z,101290.22
2023-05-09T11:04:46.780Z,101306.16
2023-05-09T11:07:27.067Z,101291.91
2023-05-09T11:10:08.132Z,101291.06
2023-05-09T11:12:34.566Z,101289.25
2023-05-09T11:15:07.955Z,101286.69
2023-05-09T11:17:38.497Z,101277.56
2023-05-09T11:20:06.637Z,101277.56
2023-05-09T11:22:42.574Z,101271.25
2023-05-09T11:25:11.288Z,101273.06
2023-05-09T11:27:49.516Z,101272.97
2023-05-09T11:30:19.377Z,101263.97
2023-05-09T11:32:55.700Z,101270.88
2023-05-09T11:35:23.707Z,101255.34
2023-05-09T11:38:00.334Z,101250.81
2023-05-09T11:40:28.529Z,101233.78
2023-05-09T11:42:58.277Z,101237.19
2023-05-09T11:45:30.264Z,101228.44
2023-05-09T11:48:00.444Z,101222.13
2023-05-09T11:50:26.936Z,101213.97
2023-05-09T11:52:53.578Z,101221.00
2023-05-09T11:55:25.151Z,101221.00
2023-05-09T11:57:53.343Z,101220.16
2023-05-09T12:00:22.380Z,101226.22
2023-05-09T12:02:50.114Z,101215.53
2023-05-09T12:05:18.985Z,101214.56
2023-05-09T12:07:46.876Z,101210.06
2023-05-09T12:10:19.857Z,101199.38
2023-05-09T12:12:48.157Z,101184.25
2023-05-09T12:15:15.448Z,101194.13
2023-05-09T12:17:43.533Z,101199.47
2023-05-09T12:20:10.733Z,101201.19
2023-05-09T12:22:37.513Z,101193.16
2023-05-09T12:25:09.440Z,101188.78
2023-05-09T12:27:38.455Z,101190.50
2023-05-09T12:30:10.145Z,101179.78
2023-05-09T12:32:39.142Z,101181.59
2023-05-09T12:35:10.201Z,101191.44
2023-05-09T12:37:36.697Z,101186.00
2023-05-09T12:40:05.185Z,101194.75
2023-05-09T12:42:32.432Z,101182.94
2023-05-09T12:44:59.147Z,101180.25
2023-05-09T12:47:30.038Z,101186.44
2023-05-09T12:50:01.412Z,101183.78
2023-05-09T12:52:58.604Z,101193.38
2023-05-09T12:55:28.900Z,101180.13
2023-05-09T12:58:03.133Z,101187.16
2023-05-09T13:00:42.097Z,101175.50
2023-05-09T13:03:31.136Z,101169.19
2023-05-09T13:06:01.783Z,101176.22
2023-05-09T13:08:29.000Z,101177.94
2023-05-09T13:11:04.098Z,101162.13
2023-05-09T13:13:41.069Z,101165.88
2023-05-09T13:16:09.517Z,101152.63
2023-05-09T13:18:37.187Z,101145.47
2023-05-09T13:21:03.621Z,101144.47
2023-05-09T13:23:29.956Z,101140.81
2023-05-09T13:25:56.304Z,101141.66
2023-05-09T13:28:22.742Z,101138.03
2023-05-09T13:30:49.155Z,101137.31
2023-05-09T13:33:25.223Z,101126.59
2023-05-09T13:35:52.585Z,101129.41
2023-05-09T13:38:18.977Z,101122.22
2023-05-09T13:40:45.333Z,101117.13
2023-05-09T13:43:11.730Z,101112.63
2023-05-09T13:45:38.086Z,101106.44
2023-05-09T13:48:04.980Z,101113.63
2023-05-09T13:50:31.383Z,101110.22
2023-05-09T13:52:58.945Z,101105.59
2023-05-09T13:55:26.845Z,101103.75
2023-05-09T13:57:53.238Z,101108.13
2023-05-09T14:00:21.346Z,101094.63
2023-05-09T14:02:48.267Z,101100.69
2023-05-09T14:05:14.735Z,101092.66
2023-05-09T14:07:41.082Z,101090.97
2023-05-09T14:10:11.911Z,101099.69
2023-05-09T14:12:39.558Z,101087.19
2023-05-09T14:15:08.025Z,101091.66
2023-05-09T14:17:34.518Z,101082.69
2023-05-09T14:20:00.938Z,101079.88
2023-05-09T14:22:28.169Z,101076.34
2023-05-09T14:24:56.406Z,101077.22
2023-05-09T14:27:22.873Z,101067.22
2023-05-09T14:29:49.370Z,101058.34
2023-05-09T14:32:16.041Z,101054.81
2023-05-09T14:34:42.391Z,101055.94
2023-05-09T14:37:13.524Z,101047.91
2023-05-09T14:39:41.921Z,101048.84
2023-05-09T14:42:10.303Z,101044.63
2023-05-09T14:44:41.140Z,101039.25
2023-05-09T14:47:08.437Z,101029.41
2023-05-09T14:49:36.425Z,101029.41
2023-05-09T14:52:03.393Z,101031.25
2023-05-09T14:54:29.808Z,101027.72
2023-05-09T14:56:57.146Z,101028.84
2023-05-09T14:59:23.499Z,101033.34
2023-05-09T15:01:51.634Z,101036.00
2023-05-09T15:04:18.091Z,101010.94
2023-05-09T15:06:45.386Z,101011.66
2023-05-09T15:09:12.885Z,101015.91
2023-05-09T15:11:47.806Z,101011.16
2023-05-09T15:14:15.276Z,101006.78
2023-05-09T15:16:41.881Z,101011.16
2023-05-09T15:19:08.461Z,101013.81
2023-05-09T15:21:35.068Z,101002.84
2023-05-09T15:24:02.289Z,101004.44
2023-05-09T15:26:29.217Z,100989.22
2023-05-09T15:28:55.687Z,100983.03
2023-05-09T15:31:23.275Z,100980.22
2023-05-09T15:33:49.684Z,100975.69
2023-05-09T15:36:16.252Z,100973.16
2023-05-09T15:38:42.648Z,100972.88
2023-05-09T15:41:09.202Z,100969.84
2023-05-09T15:43:35.567Z,100961.38
2023-05-09T15:46:02.395Z,100957.63
2023-05-09T15:48:28.854Z,100962.03
2023-05-09T15:50:55.549Z,100954.94
2023-05-09T15:53:23.082Z,100951.53
2023-05-09T15:55:49.740Z,100953.13
2023-05-09T15:58:16.365Z,100951.88
2023-05-09T16:00:42.808Z,100948.22
2023-05-09T16:03:09.366Z,100944.69
2023-05-09T16:05:35.818Z,100934.84
2023-05-09T16:08:02.282Z,100933.72
2023-05-09T16:10:28.640Z,100930.78
2023-05-09T16:12:55.061Z,100934.44
2023-05-09T16:15:21.497Z,100929.94
2023-05-09T16:17:47.875Z,100935.16
2023-05-09T16:20:14.535Z,100929.66
2023-05-09T16:22:41.510Z,100930.50
2023-05-09T16:25:08.504Z,100919.50
2023-05-09T16:27:34.937Z,100920.66
2023-05-09T16:30:01.665Z,100908.72
2023-05-09T16:32:28.320Z,100905.06
2023-05-09T16:34:54.669Z,100906.88
2023-05-09T16:37:21.030Z,100902.38
2023-05-09T16:39:47.492Z,100904.91
2023-05-09T16:42:13.840Z,100901.38
2023-05-09T16:44:40.337Z,100897.03
2023-05-09T16:47:07.025Z,100894.19
2023-05-09T16:49:33.386Z,100891.53
2023-05-09T16:51:59.841Z,100893.34
2023-05-09T16:54:26.231Z,100890.69
2023-05-09T16:56:52.600Z,100890.69
2023-05-09T16:59:19.981Z,100882.66
2023-05-09T17:01:47.539Z,100873.91
2023-05-09T17:04:14.554Z,100882.94
2023-05-09T17:06:41.012Z,100881.34
2023-05-09T17:09:07.548Z,100877.81
2023-05-09T17:11:33.990Z,100866.25
2023-05-09T17:14:02.533Z,100870.63
2023-05-09T17:16:29.166Z,100873.31
2023-05-09T17:18:55.575Z,100865.56
2023-05-09T17:21:22.869Z,100866.56
2023-05-09T17:23:49.374Z,100861.47
2023-05-09T17:26:15.737Z,100866.84
2023-05-09T17:28:42.198Z,100862.56
2023-05-09T17:31:08.747Z,100863.56
2023-05-09T17:33:35.181Z,100852.84
2023-05-09T17:36:01.559Z,100854.97
2023-05-09T17:38:28.237Z,100861.31
2023-05-09T17:40:54.604Z,100857.06
2023-05-09T17:43:21.725Z,100860.72
2023-05-09T17:45:48.209Z,100862.69
2023-05-09T17:48:14.632Z,100863.41
2023-05-09T17:50:40.977Z,100860.84
2023-05-09T17:53:09.305Z,100864.53
2023-05-09T17:55:35.949Z,100856.63
2023-05-09T17:58:02.444Z,100861.25
2023-05-09T18:00:29.261Z,100855.16
2023-05-09T18:02:57.680Z,100865.88
2023-05-09T18:05:26.138Z,100855.28
2023-05-09T18:07:53.210Z,100859.94
2023-05-09T18:10:20.519Z,100857.28
2023-05-09T18:12:47.331Z,100851.91
2023-05-09T18:15:14.053Z,100857.41
2023-05-09T18:17:40.597Z,100851.06
2023-05-09T18:20:07.757Z,100850.47
2023-05-09T18:22:34.275Z,100857.66
2023-05-09T18:25:00.731Z,100852.44
2023-05-09T18:27:27.399Z,100855.13
2023-05-09T18:29:53.748Z,100867.66
2023-05-09T18:32:20.660Z,100864.00
2023-05-09T18:34:48.510Z,100864.13
2023-05-09T18:37:16.396Z,100861.72
2023-05-09T18:39:43.003Z,100854.66
2023-05-09T18:42:09.344Z,100853.97
2023-05-09T18:44:36.375Z,100854.81
2023-05-09T18:47:02.803Z,100851.88
2023-05-09T18:49:29.808Z,100850.06
2023-05-09T18:51:56.497Z,100852.72
2023-05-09T18:54:22.999Z,100849.91
2023-05-09T18:56:49.557Z,100846.25
2023-05-09T18:59:17.165Z,100839.78
2023-05-09T19:01:44.029Z,100829.19
2023-05-09T19:04:10.762Z,100833.69
2023-05-09T19:06:37.335Z,100838.31
2023-05-09T19:09:04.236Z,100843.06
2023-05-09T19:11:30.623Z,100847.59
2023-05-09T19:13:57.024Z,100859.84
2023-05-09T19:16:24.685Z,100854.25
2023-05-09T19:18:51.267Z,100849.59
2023-05-09T19:21:18.646Z,100851.28
2023-05-09T19:23:47.684Z,100850.16
2023-05-09T19:26:15.447Z,100853.56
2023-05-09T19:28:42.673Z,100853.44
2023-05-09T19:31:09.648Z,100852.44
2023-05-09T19:33:36.134Z,100850.63
2023-05-09T19:36:02.601Z,100859.22
2023-05-09T19:38:30.382Z,100847.81
2023-05-09T19:40:56.819Z,100853.00
2023-05-09T19:43:23.188Z,100853.84
2023-05-09T19:45:49.566Z,100845.81
2023-05-09T19:48:15.964Z,100850.22
2023-05-09T19:50:43.186Z,100849.25
2023-05-09T19:53:09.756Z,100849.25
2023-05-09T19:55:36.447Z,100849.38
2023-05-09T19:58:03.279Z,100854.72
2023-05-09T20:00:29.661Z,100851.31
2023-05-09T20:02:56.118Z,100842.44
2023-05-09T20:05:22.554Z,100838.91
2023-05-09T20:07:49.349Z,100843.44
2023-05-09T20:10:16.247Z,100839.19
2023-05-09T20:12:43.362Z,100836.38
2023-05-09T20:15:10.133Z,100829.19
2023-05-09T20:17:36.712Z,100845.13
2023-05-09T20:20:04.142Z,100843.16
2023-05-09T20:22:30.491Z,100837.78
2023-05-09T20:24:56.858Z,100829.66
2023-05-09T20:27:23.530Z,100838.53
2023-05-09T20:29:49.874Z,100829.66
2023-05-09T20:32:16.233Z,100829.75
2023-05-09T20:34:42.649Z,100830.22
2023-05-09T20:37:09.034Z,100836.31
2023-05-09T20:39:35.515Z,100830.97
2023-05-09T20:42:02.384Z,100832.41
2023-05-09T20:44:29.144Z,100819.44
2023-05-09T20:46:55.625Z,100823.69
2023-05-09T20:49:22.681Z,100816.34
2023-05-09T20:51:49.122Z,100822.28
2023-05-09T20:54:17.784Z,100819.34
2023-05-09T20:56:44.261Z,100813.69
2023-05-09T20:59:10.664Z,100815.41
2023-05-09T21:01:37.131Z,100818.38
2023-05-09T21:04:08.228Z,100817.97
2023-05-09T21:06:36.067Z,100812.47
2023-05-09T21:09:03.273Z,100807.66
2023-05-09T21:11:30.033Z,100800.91
2023-05-09T21:13:56.764Z,100799.66
2023-05-09T21:16:23.324Z,100796.84
2023-05-09T21:18:49.798Z,100789.34
2023-05-09T21:21:16.168Z,100794.47
2023-05-09T21:23:42.577Z,100792.34
2023-05-09T21:26:09.112Z,100784.16
2023-05-09T21:28:35.524Z,100786.69
2023-05-09T21:31:01.972Z,100785.44
2023-05-09T21:33:28.495Z,100782.59
2023-05-09T21:35:55.077Z,100777.78
2023-05-09T21:38:21.419Z,100781.34
2023-05-09T21:40:49.872Z,100776.69
2023-05-09T21:43:18.072Z,100781.75
2023-05-09T21:45:45.693Z,100767.66
2023-05-09T21:48:12.384Z,100770.34
2023-05-09T21:50:38.952Z,100768.50
2023-05-09T21:53:05.522Z,100772.88
2023-05-09T21:55:31.868Z,100759.59
2023-05-09T21:57:58.290Z,100770.00
2023-05-09T22:00:24.708Z,100764.09
2023-05-09T22:02:51.281Z,100757.75
2023-05-09T22:05:17.949Z,100759.75
2023-05-09T22:07:44.467Z,100759.88
2023-05-09T22:10:11.291Z,100753.53
2023-05-09T22:12:37.700Z,100751.69
2023-05-09T22:15:04.527Z,100749.72
2023-05-09T22:17:30.910Z,100747.31
2023-05-09T22:19:57.339Z,100750.16
2023-05-09T22:22:23.834Z,100745.63
2023-05-09T22:24:50.323Z,100732.50
2023-05-09T22:27:16.724Z,100741.28
2023-05-09T22:29:43.080Z,100736.88
2023-05-09T22:32:09.711Z,100743.06
2023-05-09T22:34:36.168Z,100747.31
2023-05-09T22:37:02.769Z,100736.59
2023-05-09T22:39:29.717Z,100739.13
2023-05-09T22:41:56.522Z,100743.66
2023-05-09T22:44:23.008Z,100737.28
2023-05-09T22:46:49.392Z,100740.66
2023-05-09T22:49:15.851Z,100729.78
2023-05-09T22:51:42.257Z,100727.97
2023-05-09T22:54:08.951Z,100726.16
2023-05-09T22:56:35.333Z,100732.34
2023-05-09T22:59:01.729Z,100731.38
2023-05-09T23:01:28.277Z,100730.38
2023-05-09T23:03:54.687Z,100723.31
2023-05-09T23:06:21.169Z,100720.63
2023-05-09T23:08:47.546Z,100725.84
2023-05-09T23:11:13.969Z,100722.31
2023-05-09T23:13:40.530Z,100717.66
2023-05-09T23:16:06.903Z,100714.13
2023-05-09T23:18:33.325Z,100707.94
2023-05-09T23:20:59.674Z,100704.25
2023-05-09T23:23:26.089Z,100706.94
2023-05-09T23:25:52.527Z,100703.56
2023-05-09T23:28:20.338Z,100706.25
2023-05-09T23:30:46.717Z,100703.41
2023-05-09T23:33:13.131Z,100696.06
2023-05-09T23:35:39.483Z,100689.69
2023-05-09T23:38:05.849Z,100686.16
2023-05-09T23:40:32.193Z,100693.53
2023-05-09T23:42:58.559Z,100688.00
2023-05-09T23:45:25.028Z,100696.91
2023-05-09T23:47:51.555Z,100691.41
2023-05-09T23:50:18.260Z,100689.69
2023-05-09T23:52:44.844Z,100685.19
2023-05-09T23:55:11.444Z,100690.69
2023-05-09T23:57:38.260Z,100688.00
